createdAt,value
2023-02-25T00:00:09.905Z,990.2
2023-02-25T00:01:26.086Z,990.3
2023-02-25T00:02:42.271Z,990.2
2023-02-25T00:03:57.471Z,990.2
2023-02-25T00:05:13.561Z,990.1
2023-02-25T00:06:29.730Z,990.2
2023-02-25T00:07:46.034Z,990.1
2023-02-25T00:09:02.117Z,990.1
2023-02-25T00:10:18.413Z,990.2
2023-02-25T00:11:33.511Z,990.2
2023-02-25T00:12:48.844Z,990.1
2023-02-25T00:14:04.040Z,990.1
2023-02-25T00:15:19.258Z,990.1
2023-02-25T00:16:34.468Z,990.1
2023-02-25T00:17:50.523Z,990.1
2023-02-25T00:19:06.833Z,990.1
2023-02-25T00:20:22.905Z,990
2023-02-25T00:21:39.104Z,990.1
2023-02-25T00:22:55.402Z,990.1
2023-02-25T00:24:11.594Z,990
2023-02-25T00:25:27.765Z,990
2023-02-25T00:26:43.970Z,990
2023-02-25T00:28:00.040Z,989.9
2023-02-25T00:29:16.335Z,990
2023-02-25T00:30:32.529Z,989.9
2023-02-25T00:31:48.707Z,989.9
2023-02-25T00:33:03.916Z,990
2023-02-25T00:34:20.102Z,990
2023-02-25T00:35:36.284Z,990.1
2023-02-25T00:36:52.358Z,990.2
2023-02-25T00:38:08.666Z,990.3
2023-02-25T00:39:24.859Z,990.4
2023-02-25T00:40:41.049Z,990.4
2023-02-25T00:41:56.245Z,990.4
2023-02-25T00:43:11.344Z,990.4
2023-02-25T00:44:26.676Z,990.4
2023-02-25T00:45:41.880Z,990.4
2023-02-25T00:46:56.977Z,990.4
2023-02-25T00:48:12.298Z,990.5
2023-02-25T00:49:28.486Z,990.4
2023-02-25T00:50:44.548Z,990.4
2023-02-25T00:52:00.848Z,990.4
2023-02-25T00:53:17.050Z,990.4
2023-02-25T00:54:33.232Z,990.4
2023-02-25T00:55:49.294Z,990.4
2023-02-25T00:57:05.606Z,990.4
2023-02-25T00:58:21.668Z,990.4
2023-02-25T00:59:37.989Z,990.3
2023-02-25T01:00:54.036Z,990.3
2023-02-25T01:02:10.365Z,990.3
2023-02-25T01:03:26.541Z,990.3
2023-02-25T01:04:41.740Z,990.3
2023-02-25T01:05:57.811Z,990.3
2023-02-25T01:07:14.128Z,990.3
2023-02-25T01:08:30.312Z,990.3
2023-02-25T01:09:46.492Z,990.2
2023-02-25T01:11:02.676Z,990.2
2023-02-25T01:12:18.876Z,990.1
2023-02-25T01:13:33.965Z,990.2
2023-02-25T01:14:49.173Z,990.2
2023-02-25T01:16:04.369Z,990.2
2023-02-25T01:17:19.710Z,990.2
2023-02-25T01:18:35.894Z,990.2
2023-02-25T01:19:52.081Z,990.2
2023-02-25T01:21:08.149Z,990.2
2023-02-25T01:22:24.460Z,990.2
2023-02-25T01:23:40.645Z,990.2
2023-02-25T01:24:56.827Z,990.2
2023-02-25T01:26:13.019Z,990.1
2023-02-25T01:27:29.067Z,990.2
2023-02-25T01:28:45.269Z,990.2
2023-02-25T01:30:01.588Z,990.2
2023-02-25T01:31:17.773Z,990.1
2023-02-25T01:32:33.957Z,990.2
2023-02-25T01:33:49.160Z,990.1
2023-02-25T01:35:05.355Z,990.2
2023-02-25T01:36:21.402Z,990.2
2023-02-25T01:37:37.719Z,990.1
2023-02-25T01:38:53.913Z,990.1
2023-02-25T01:40:09.956Z,990.1
2023-02-25T01:41:26.160Z,990.1
2023-02-25T01:42:41.504Z,990.1
2023-02-25T01:43:56.708Z,990.1
2023-02-25T01:45:11.927Z,990.1
2023-02-25T01:46:26.987Z,990
2023-02-25T01:47:43.315Z,990
2023-02-25T01:48:59.496Z,990.1
2023-02-25T01:50:15.686Z,990.1
2023-02-25T01:51:31.880Z,990.1
2023-02-25T01:52:47.924Z,990.1
2023-02-25T01:54:04.253Z,990
2023-02-25T01:55:20.437Z,990
2023-02-25T01:56:36.619Z,990.1
2023-02-25T01:57:52.817Z,990.1
2023-02-25T01:59:08.993Z,990.1
2023-02-25T02:00:25.000Z,990
2023-02-25T02:01:41.369Z,990
2023-02-25T02:02:56.444Z,990
2023-02-25T02:04:12.771Z,990
2023-02-25T02:05:28.803Z,990
2023-02-25T02:06:45.131Z,990.1
2023-02-25T02:08:01.335Z,990.1
2023-02-25T02:09:17.522Z,990.1
2023-02-25T02:10:33.567Z,990.1
2023-02-25T02:11:48.908Z,990
2023-02-25T02:13:04.127Z,990
2023-02-25T02:14:20.157Z,990.1
2023-02-25T02:15:36.492Z,990.1
2023-02-25T02:16:52.686Z,990.1
2023-02-25T02:18:08.874Z,990.1
2023-02-25T02:19:24.907Z,990.1
2023-02-25T02:20:41.241Z,990.1
2023-02-25T02:21:57.442Z,990
2023-02-25T02:23:13.626Z,990.1
2023-02-25T02:24:29.810Z,990.1
2023-02-25T02:25:45.839Z,990.1
2023-02-25T02:27:02.037Z,990.1
2023-02-25T02:28:18.378Z,990
2023-02-25T02:29:33.428Z,990.1
2023-02-25T02:30:49.000Z,990.1
2023-02-25T02:32:05.952Z,990.1
2023-02-25T02:33:22.141Z,990.1
2023-02-25T02:34:38.314Z,990.1
2023-02-25T02:35:54.514Z,990.1
2023-02-25T02:37:10.689Z,990.2
2023-02-25T02:38:25.913Z,990.1
2023-02-25T02:39:41.115Z,990.1
2023-02-25T02:40:56.322Z,990
2023-02-25T02:42:11.389Z,990.2
2023-02-25T02:43:27.730Z,990.1
2023-02-25T02:44:43.915Z,990.1
2023-02-25T02:46:00.092Z,990.1
2023-02-25T02:47:16.292Z,990
2023-02-25T02:48:32.474Z,990
2023-02-25T02:49:48.505Z,990
2023-02-25T02:51:04.838Z,990.1
2023-02-25T02:52:20.881Z,990.1
2023-02-25T02:53:37.212Z,990.1
2023-02-25T02:54:53.406Z,990
2023-02-25T02:56:09.586Z,990.1
2023-02-25T02:57:25.785Z,990.2
2023-02-25T02:58:41.976Z,990.1
2023-02-25T02:59:57.031Z,990.1
2023-02-25T03:01:13.355Z,990.1
2023-02-25T03:02:29.560Z,990.1
2023-02-25T03:03:45.735Z,990.1
2023-02-25T03:05:01.952Z,990.1
2023-02-25T03:06:18.109Z,990.2
2023-02-25T03:07:33.318Z,990.2
2023-02-25T03:08:48.381Z,990.2
2023-02-25T03:10:03.734Z,990.2
2023-02-25T03:11:18.956Z,990.2
2023-02-25T03:12:35.131Z,990.2
2023-02-25T03:13:51.313Z,990.3
2023-02-25T03:15:07.363Z,990.3
2023-02-25T03:16:23.706Z,990.2
2023-02-25T03:17:39.720Z,990.3
2023-02-25T03:18:55.906Z,990.4
2023-02-25T03:20:12.104Z,990.4
2023-02-25T03:21:28.300Z,990.4
2023-02-25T03:22:44.633Z,990.5
2023-02-25T03:24:00.815Z,990.5
2023-02-25T03:25:17.006Z,990.5
2023-02-25T03:26:33.188Z,990.6
2023-02-25T03:27:48.394Z,990.6
2023-02-25T03:29:04.592Z,990.6
2023-02-25T03:30:20.772Z,990.6
2023-02-25T03:31:36.954Z,990.7
2023-02-25T03:32:52.981Z,990.7
2023-02-25T03:34:09.183Z,990.7
2023-02-25T03:35:25.535Z,990.7
2023-02-25T03:36:40.731Z,990.7
2023-02-25T03:37:55.777Z,990.7
2023-02-25T03:39:12.129Z,990.8
2023-02-25T03:40:28.323Z,990.7
2023-02-25T03:41:44.500Z,990.9
2023-02-25T03:43:00.534Z,990.8
2023-02-25T03:44:16.875Z,991
2023-02-25T03:45:33.067Z,990.9
2023-02-25T03:46:49.094Z,990.9
2023-02-25T03:48:05.451Z,990.8
2023-02-25T03:49:21.632Z,990.9
2023-02-25T03:50:37.809Z,990.9
2023-02-25T03:51:53.998Z,991
2023-02-25T03:53:10.023Z,990.8
2023-02-25T03:54:25.392Z,990.9
2023-02-25T03:55:41.590Z,991
2023-02-25T03:56:57.779Z,991
2023-02-25T03:58:13.968Z,990.9
2023-02-25T03:59:29.971Z,991
2023-02-25T04:00:46.179Z,991
2023-02-25T04:02:02.515Z,991.1
2023-02-25T04:03:17.732Z,991.1
2023-02-25T04:04:32.939Z,991.1
2023-02-25T04:05:47.995Z,991
2023-02-25T04:07:03.346Z,991.1
2023-02-25T04:08:18.400Z,991.1
2023-02-25T04:09:33.777Z,991.1
2023-02-25T04:10:48.985Z,991.1
2023-02-25T04:12:04.187Z,991.2
2023-02-25T04:13:20.208Z,991.1
2023-02-25T04:14:36.558Z,991.2
2023-02-25T04:15:52.750Z,991.1
2023-02-25T04:17:08.933Z,991.1
2023-02-25T04:18:25.121Z,991.1
2023-02-25T04:19:41.319Z,991.2
2023-02-25T04:20:57.493Z,991.2
2023-02-25T04:22:13.683Z,991.3
2023-02-25T04:23:29.887Z,991.2
2023-02-25T04:24:45.888Z,991.3
2023-02-25T04:26:01.101Z,991.3
2023-02-25T04:27:17.451Z,991.3
2023-02-25T04:28:33.488Z,991.3
2023-02-25T04:29:49.660Z,991.3
2023-02-25T04:31:06.030Z,991.3
2023-02-25T04:32:22.208Z,991.3
2023-02-25T04:33:38.224Z,991.3
2023-02-25T04:34:54.583Z,991.4
2023-02-25T04:36:10.776Z,991.3
2023-02-25T04:37:25.818Z,991.4
2023-02-25T04:38:41.009Z,991.4
2023-02-25T04:39:56.406Z,991.5
2023-02-25T04:41:11.616Z,991.4
2023-02-25T04:42:27.788Z,991.5
2023-02-25T04:43:43.986Z,991.5
2023-02-25T04:45:00.180Z,991.5
2023-02-25T04:46:16.192Z,991.5
2023-02-25T04:47:32.552Z,991.4
2023-02-25T04:48:48.729Z,991.5
2023-02-25T04:50:04.738Z,991.6
2023-02-25T04:51:21.110Z,991.5
2023-02-25T04:52:37.112Z,991.6
2023-02-25T04:53:53.483Z,991.6
2023-02-25T04:55:09.678Z,991.6
2023-02-25T04:56:25.851Z,991.6
2023-02-25T04:57:41.067Z,991.6
2023-02-25T04:58:57.242Z,991.6
2023-02-25T05:00:13.429Z,991.6
2023-02-25T05:01:29.437Z,991.7
2023-02-25T05:02:45.816Z,991.6
2023-02-25T05:04:02.010Z,991.6
2023-02-25T05:05:18.000Z,991.7
2023-02-25T05:06:33.398Z,991.6
2023-02-25T05:07:48.613Z,991.6
2023-02-25T05:09:03.637Z,991.7
2023-02-25T05:10:19.034Z,991.7
2023-02-25T05:11:35.224Z,991.7
2023-02-25T05:12:51.412Z,991.7
2023-02-25T05:14:07.607Z,991.7
2023-02-25T05:15:23.780Z,991.8
2023-02-25T05:16:39.987Z,991.7
2023-02-25T05:17:56.171Z,991.8
2023-02-25T05:19:12.179Z,991.8
2023-02-25T05:20:28.364Z,991.7
2023-02-25T05:21:44.731Z,991.7
2023-02-25T05:23:00.913Z,991.8
2023-02-25T05:24:16.923Z,991.8
2023-02-25T05:25:33.304Z,991.8
2023-02-25T05:26:48.511Z,991.8
2023-02-25T05:28:04.704Z,991.9
2023-02-25T05:29:20.886Z,991.9
2023-02-25T05:30:37.077Z,991.9
2023-02-25T05:31:53.082Z,991.9
2023-02-25T05:33:09.458Z,991.9
2023-02-25T05:34:25.453Z,991.9
2023-02-25T05:35:40.855Z,991.9
2023-02-25T05:36:56.060Z,992
2023-02-25T05:38:11.085Z,992
2023-02-25T05:39:26.285Z,992
2023-02-25T05:40:42.488Z,992.1
2023-02-25T05:41:58.854Z,992
2023-02-25T05:43:15.044Z,992.1
2023-02-25T05:44:31.246Z,992
2023-02-25T05:45:47.425Z,992.1
2023-02-25T05:47:03.430Z,992.1
2023-02-25T05:48:19.808Z,992.1
2023-02-25T05:49:35.989Z,992.2
2023-02-25T05:50:52.186Z,992.2
2023-02-25T05:52:08.382Z,992.2
2023-02-25T05:53:24.563Z,992.2
2023-02-25T05:54:40.555Z,992.2
2023-02-25T05:55:55.953Z,992.3
2023-02-25T05:57:12.137Z,992.2
2023-02-25T05:58:28.328Z,992.2
2023-02-25T05:59:44.524Z,992.3
2023-02-25T06:01:00.716Z,992.4
2023-02-25T06:02:16.702Z,992.4
2023-02-25T06:03:33.092Z,992.5
2023-02-25T06:04:48.298Z,992.5
2023-02-25T06:06:03.509Z,992.5
2023-02-25T06:07:19.515Z,992.5
2023-02-25T06:08:35.886Z,992.4
2023-02-25T06:09:52.075Z,992.5
2023-02-25T06:11:08.263Z,992.6
2023-02-25T06:12:24.449Z,992.6
2023-02-25T06:13:40.644Z,992.6
2023-02-25T06:14:56.828Z,992.7
2023-02-25T06:16:13.017Z,992.7
2023-02-25T06:17:29.008Z,992.7
2023-02-25T06:18:45.402Z,992.7
2023-02-25T06:20:01.586Z,992.7
2023-02-25T06:21:17.789Z,992.7
2023-02-25T06:22:32.988Z,992.8
2023-02-25T06:23:49.168Z,992.9
2023-02-25T06:25:05.160Z,992.9
2023-02-25T06:26:21.560Z,992.8
2023-02-25T06:27:37.740Z,992.9
2023-02-25T06:28:53.731Z,993
2023-02-25T06:30:10.115Z,993
2023-02-25T06:31:25.135Z,993
2023-02-25T06:32:40.347Z,993
2023-02-25T06:33:55.557Z,993.1
2023-02-25T06:35:10.956Z,993.2
2023-02-25T06:36:25.969Z,993.1
2023-02-25T06:37:41.385Z,993.2
2023-02-25T06:38:57.371Z,993.1
2023-02-25T06:40:13.558Z,993.1
2023-02-25T06:41:29.953Z,993.2
2023-02-25T06:42:46.146Z,993.2
2023-02-25T06:44:02.122Z,993.2
2023-02-25T06:45:18.518Z,993.2
2023-02-25T06:46:34.699Z,993.2
2023-02-25T06:47:50.888Z,993.3
2023-02-25T06:49:07.084Z,993.4
2023-02-25T06:50:23.281Z,993.4
2023-02-25T06:51:39.272Z,993.5
2023-02-25T06:52:55.454Z,993.5
2023-02-25T06:54:10.857Z,993.5
2023-02-25T06:55:26.851Z,993.6
2023-02-25T06:56:43.033Z,993.5
2023-02-25T06:57:59.436Z,993.6
2023-02-25T06:59:15.608Z,993.6
2023-02-25T07:00:31.805Z,993.7
2023-02-25T07:01:47.991Z,993.7
2023-02-25T07:03:03.003Z,993.7
2023-02-25T07:04:18.419Z,993.7
2023-02-25T07:05:33.639Z,993.7
2023-02-25T07:06:48.833Z,993.8
2023-02-25T07:08:05.027Z,993.8
2023-02-25T07:09:21.008Z,993.8
2023-02-25T07:10:37.201Z,993.9
2023-02-25T07:11:53.603Z,993.9
2023-02-25T07:13:09.789Z,994
2023-02-25T07:14:25.964Z,994
2023-02-25T07:15:42.166Z,994
2023-02-25T07:16:58.139Z,994
2023-02-25T07:18:14.334Z,994
2023-02-25T07:19:30.731Z,994.1
2023-02-25T07:20:46.920Z,994.1
2023-02-25T07:22:02.909Z,994.1
2023-02-25T07:23:18.319Z,994.1
2023-02-25T07:24:34.511Z,994.1
2023-02-25T07:25:50.481Z,994
2023-02-25T07:27:06.886Z,994.1
2023-02-25T07:28:22.863Z,994.1
2023-02-25T07:29:39.261Z,994
2023-02-25T07:30:55.457Z,994
2023-02-25T07:32:10.671Z,994.1
2023-02-25T07:33:25.652Z,994.2
2023-02-25T07:34:40.882Z,994.1
2023-02-25T07:35:56.284Z,994.2
2023-02-25T07:37:12.274Z,994.2
2023-02-25T07:38:28.463Z,994.2
2023-02-25T07:39:44.860Z,994.3
2023-02-25T07:41:00.843Z,994.2
2023-02-25T07:42:17.232Z,994.3
2023-02-25T07:43:33.422Z,994.3
2023-02-25T07:44:49.619Z,994.3
2023-02-25T07:46:05.802Z,994.4
2023-02-25T07:47:22.004Z,994.4
2023-02-25T07:48:38.188Z,994.4
2023-02-25T07:49:54.378Z,994.4
2023-02-25T07:51:10.568Z,994.4
2023-02-25T07:52:25.765Z,994.5
2023-02-25T07:53:41.961Z,994.5
2023-02-25T07:54:58.146Z,994.5
2023-02-25T07:56:14.121Z,994.6
2023-02-25T07:57:30.309Z,994.5
2023-02-25T07:58:46.508Z,994.5
2023-02-25T08:00:02.913Z,994.5
2023-02-25T08:01:18.133Z,994.5
2023-02-25T08:02:33.327Z,994.6
2023-02-25T08:03:48.323Z,994.6
2023-02-25T08:05:03.748Z,994.6
2023-02-25T08:06:19.932Z,994.7
2023-02-25T08:07:35.910Z,994.7
2023-02-25T08:08:52.325Z,994.7
2023-02-25T08:10:08.513Z,994.7
2023-02-25T08:11:24.477Z,994.7
2023-02-25T08:12:40.895Z,994.7
2023-02-25T08:13:57.079Z,994.8
2023-02-25T08:15:13.273Z,994.7
2023-02-25T08:16:29.247Z,994.8
2023-02-25T08:17:45.649Z,994.8
2023-02-25T08:19:01.607Z,994.8
2023-02-25T08:20:18.027Z,994.8
2023-02-25T08:21:33.223Z,994.8
2023-02-25T08:22:49.428Z,994.9
2023-02-25T08:24:05.615Z,994.9
2023-02-25T08:25:21.791Z,994.9
2023-02-25T08:26:37.762Z,994.9
2023-02-25T08:27:54.171Z,994.9
2023-02-25T08:29:10.362Z,994.9
2023-02-25T08:30:25.589Z,995
2023-02-25T08:31:40.796Z,995
2023-02-25T08:32:56.983Z,995
2023-02-25T08:34:12.944Z,995
2023-02-25T08:35:29.347Z,995.1
2023-02-25T08:36:45.546Z,995
2023-02-25T08:38:01.514Z,995.1
2023-02-25T08:39:17.704Z,995.1
2023-02-25T08:40:33.126Z,995.2
2023-02-25T08:41:49.111Z,995.2
2023-02-25T08:43:05.509Z,995.3
2023-02-25T08:44:21.474Z,995.3
2023-02-25T08:45:37.901Z,995.3
2023-02-25T08:46:54.087Z,995.3
2023-02-25T08:48:10.277Z,995.3
2023-02-25T08:49:26.235Z,995.3
2023-02-25T08:50:42.413Z,995.4
2023-02-25T08:51:58.833Z,995.4
2023-02-25T08:53:15.021Z,995.4
2023-02-25T08:54:30.983Z,995.5
2023-02-25T08:55:47.178Z,995.5
2023-02-25T08:57:02.399Z,995.5
2023-02-25T08:58:17.828Z,995.4
2023-02-25T08:59:33.050Z,995.5
2023-02-25T09:00:48.025Z,995.5
2023-02-25T09:02:04.206Z,995.5
2023-02-25T09:03:20.634Z,995.6
2023-02-25T09:04:36.582Z,995.6
2023-02-25T09:05:52.998Z,995.6
2023-02-25T09:07:08.957Z,995.6
2023-02-25T09:08:25.382Z,995.7
2023-02-25T09:09:41.581Z,995.6
2023-02-25T09:10:57.535Z,995.7
2023-02-25T09:12:13.718Z,995.8
2023-02-25T09:13:30.148Z,995.7
2023-02-25T09:14:46.326Z,995.8
2023-02-25T09:16:02.528Z,995.8
2023-02-25T09:17:17.721Z,995.9
2023-02-25T09:18:33.933Z,995.9
2023-02-25T09:19:49.866Z,995.9
2023-02-25T09:21:06.292Z,996
2023-02-25T09:22:22.491Z,995.9
2023-02-25T09:23:38.681Z,996
2023-02-25T09:24:54.865Z,996
2023-02-25T09:26:10.091Z,996.1
2023-02-25T09:27:25.060Z,996.1
2023-02-25T09:28:40.498Z,996.1
2023-02-25T09:29:55.703Z,996.1
2023-02-25T09:31:11.892Z,996.1
2023-02-25T09:32:26.877Z,996.1
2023-02-25T09:33:42.327Z,996.2
2023-02-25T09:34:58.266Z,996.2
2023-02-25T09:36:14.463Z,996.2
2023-02-25T09:37:30.882Z,996.3
2023-02-25T09:38:47.076Z,996.2
2023-02-25T09:40:03.262Z,996.2
2023-02-25T09:41:19.211Z,996.3
2023-02-25T09:42:35.415Z,996.3
2023-02-25T09:43:51.840Z,996.3
2023-02-25T09:45:08.020Z,996.3
2023-02-25T09:46:24.215Z,996.3
2023-02-25T09:47:40.155Z,996.4
2023-02-25T09:48:56.589Z,996.3
2023-02-25T09:50:11.547Z,996.4
2023-02-25T09:51:27.979Z,996.3
2023-02-25T09:52:44.180Z,996.5
2023-02-25T09:54:00.000Z,996.4
2023-02-25T09:55:16.303Z,996.4
2023-02-25T09:56:32.741Z,996.5
2023-02-25T09:57:48.693Z,996.5
2023-02-25T09:59:04.151Z,996.6
2023-02-25T10:00:19.356Z,996.5
2023-02-25T10:01:35.548Z,996.5
2023-02-25T10:02:50.517Z,996.6
2023-02-25T10:04:05.958Z,996.6
2023-02-25T10:05:21.921Z,996.6
2023-02-25T10:06:38.098Z,996.6
2023-02-25T10:07:54.288Z,996.6
2023-02-25T10:09:10.475Z,996.6
2023-02-25T10:10:26.918Z,996.7
2023-02-25T10:11:43.098Z,996.7
2023-02-25T10:12:59.045Z,996.7
2023-02-25T10:14:15.233Z,996.7
2023-02-25T10:15:31.663Z,996.7
2023-02-25T10:16:47.849Z,996.8
2023-02-25T10:18:03.803Z,996.9
2023-02-25T10:19:19.981Z,996.8
2023-02-25T10:20:35.196Z,996.9
2023-02-25T10:21:51.624Z,996.9
2023-02-25T10:23:07.827Z,997
2023-02-25T10:24:24.002Z,996.9
2023-02-25T10:25:40.189Z,997
2023-02-25T10:26:56.376Z,996.9
2023-02-25T10:28:12.322Z,997
2023-02-25T10:29:27.781Z,997
2023-02-25T10:30:42.992Z,997
2023-02-25T10:31:59.186Z,997.1
2023-02-25T10:33:15.371Z,997.1
2023-02-25T10:34:30.339Z,997
2023-02-25T10:35:46.657Z,997.1
2023-02-25T10:37:03.095Z,997.1
2023-02-25T10:38:19.279Z,997.1
2023-02-25T10:39:35.213Z,997.2
2023-02-25T10:40:51.661Z,997.2
2023-02-25T10:42:07.840Z,997.2
2023-02-25T10:43:23.791Z,997.2
2023-02-25T10:44:40.228Z,997.2
2023-02-25T10:45:56.427Z,997.2
2023-02-25T10:47:12.598Z,997.3
2023-02-25T10:48:28.797Z,997.3
2023-02-25T10:49:44.984Z,997.2
2023-02-25T10:51:00.913Z,997.3
2023-02-25T10:52:16.371Z,997.4
2023-02-25T10:53:32.574Z,997.3
2023-02-25T10:54:48.760Z,997.3
2023-02-25T10:56:04.703Z,997.3
2023-02-25T10:57:21.139Z,997.4
2023-02-25T10:58:37.076Z,997.4
2023-02-25T10:59:53.520Z,997.4
2023-02-25T11:01:08.735Z,997.4
2023-02-25T11:02:23.932Z,997.4
2023-02-25T11:03:40.127Z,997.4
2023-02-25T11:04:56.315Z,997.4
2023-02-25T11:06:12.241Z,997.4
2023-02-25T11:07:28.698Z,997.5
2023-02-25T11:08:44.873Z,997.4
2023-02-25T11:10:01.067Z,997.6
2023-02-25T11:11:17.269Z,997.5
2023-02-25T11:12:33.456Z,997.6
2023-02-25T11:13:49.375Z,997.6
2023-02-25T11:15:05.833Z,997.6
2023-02-25T11:16:22.014Z,997.7
2023-02-25T11:17:38.216Z,997.6
2023-02-25T11:18:53.417Z,997.6
2023-02-25T11:20:09.598Z,997.7
2023-02-25T11:21:25.534Z,997.6
2023-02-25T11:22:41.713Z,997.6
2023-02-25T11:23:57.915Z,997.7
2023-02-25T11:25:14.352Z,997.7
2023-02-25T11:26:30.291Z,997.7
2023-02-25T11:27:45.763Z,997.7
2023-02-25T11:29:00.709Z,997.7
2023-02-25T11:30:15.921Z,997.7
2023-02-25T11:31:31.395Z,997.8
2023-02-25T11:32:46.600Z,997.8
2023-02-25T11:34:01.559Z,997.8
2023-02-25T11:35:17.737Z,997.8
2023-02-25T11:36:33.930Z,997.8
2023-02-25T11:37:50.392Z,997.9
2023-02-25T11:39:06.568Z,998
2023-02-25T11:40:22.487Z,998
2023-02-25T11:41:38.693Z,997.9
2023-02-25T11:42:55.139Z,998
2023-02-25T11:44:11.062Z,998
2023-02-25T11:45:27.513Z,998
2023-02-25T11:46:43.700Z,998
2023-02-25T11:47:59.631Z,998
2023-02-25T11:49:16.089Z,998
2023-02-25T11:50:31.289Z,998
2023-02-25T11:51:47.224Z,998
2023-02-25T11:53:03.663Z,998
2023-02-25T11:54:19.866Z,998
2023-02-25T11:55:36.044Z,998
2023-02-25T11:56:52.233Z,998
2023-02-25T11:58:08.426Z,998
2023-02-25T11:59:23.371Z,998
2023-02-25T12:00:38.575Z,998
2023-02-25T12:01:54.061Z,998
2023-02-25T12:03:09.276Z,998
2023-02-25T12:04:25.462Z,998.1
2023-02-25T12:05:41.646Z,998.1
2023-02-25T12:06:57.561Z,998.1
2023-02-25T12:08:14.023Z,998.1
2023-02-25T12:09:29.956Z,998.2
2023-02-25T12:10:46.399Z,998.1
2023-02-25T12:12:02.588Z,998.2
2023-02-25T12:13:18.790Z,998.2
2023-02-25T12:14:34.691Z,998.2
2023-02-25T12:15:51.157Z,998.3
2023-02-25T12:17:07.354Z,998.3
2023-02-25T12:18:23.541Z,998.3
2023-02-25T12:19:38.741Z,998.4
2023-02-25T12:20:54.653Z,998.4
2023-02-25T12:22:10.848Z,998.5
2023-02-25T12:23:27.306Z,998.5
2023-02-25T12:24:43.507Z,998.5
2023-02-25T12:25:59.408Z,998.7
2023-02-25T12:27:15.885Z,998.6
2023-02-25T12:28:31.089Z,998.7
2023-02-25T12:29:46.295Z,998.6
2023-02-25T12:31:02.227Z,998.7
2023-02-25T12:32:18.676Z,998.7
2023-02-25T12:33:34.871Z,998.8
2023-02-25T12:34:51.052Z,998.8
2023-02-25T12:36:07.255Z,998.8
2023-02-25T12:37:23.155Z,998.9
2023-02-25T12:38:39.349Z,998.9
2023-02-25T12:39:55.812Z,999
2023-02-25T12:41:11.730Z,999
2023-02-25T12:42:28.184Z,998.9
2023-02-25T12:43:44.390Z,998.9
2023-02-25T12:45:00.295Z,998.9
2023-02-25T12:46:15.780Z,999
2023-02-25T12:47:31.960Z,999.1
2023-02-25T12:48:48.159Z,998.9
2023-02-25T12:50:04.351Z,999
2023-02-25T12:51:20.543Z,999
2023-02-25T12:52:36.442Z,999
2023-02-25T12:53:52.914Z,999.1
2023-02-25T12:55:08.138Z,999.1
2023-02-25T12:56:23.069Z,999.1
2023-02-25T12:57:39.253Z,999.1
2023-02-25T12:58:55.453Z,999.2
2023-02-25T13:00:11.632Z,999.1
2023-02-25T13:01:27.985Z,999.1
2023-02-25T13:02:44.002Z,999.1
2023-02-25T13:04:00.196Z,999.1
2023-02-25T13:05:16.542Z,999.1
2023-02-25T13:06:32.580Z,999.1
2023-02-25T13:07:48.760Z,999.2
2023-02-25T13:09:05.117Z,999.1
2023-02-25T13:10:21.306Z,999.2
2023-02-25T13:11:37.489Z,999.2
2023-02-25T13:12:52.694Z,999.2
2023-02-25T13:14:08.892Z,999.3
2023-02-25T13:15:24.908Z,999.3
2023-02-25T13:16:41.266Z,999.4
2023-02-25T13:17:57.458Z,999.5
2023-02-25T13:19:13.654Z,999.4
2023-02-25T13:20:29.838Z,999.4
2023-02-25T13:21:45.048Z,999.4
2023-02-25T13:23:00.103Z,999.4
2023-02-25T13:24:15.300Z,999.4
2023-02-25T13:25:30.522Z,999.4
2023-02-25T13:26:45.743Z,999.5
2023-02-25T13:28:00.945Z,999.5
2023-02-25T13:29:17.138Z,999.5
2023-02-25T13:30:33.320Z,999.6
2023-02-25T13:31:49.671Z,999.7
2023-02-25T13:33:05.858Z,999.6
2023-02-25T13:34:22.043Z,999.7
2023-02-25T13:35:38.237Z,999.7
2023-02-25T13:36:54.435Z,999.8
2023-02-25T13:38:10.454Z,999.8
2023-02-25T13:39:26.807Z,999.8
2023-02-25T13:40:43.000Z,999.9
2023-02-25T13:41:59.017Z,999.9
2023-02-25T13:43:15.379Z,999.9
2023-02-25T13:44:30.587Z,999.9
2023-02-25T13:45:46.609Z,999.9
2023-02-25T13:47:02.964Z,999.9
2023-02-25T13:48:19.148Z,999.9
2023-02-25T13:49:35.344Z,999.9
2023-02-25T13:50:51.518Z,999.9
2023-02-25T13:52:07.719Z,1000
2023-02-25T13:53:22.761Z,999.9
2023-02-25T13:54:37.966Z,1000
2023-02-25T13:55:53.343Z,1000
2023-02-25T13:57:08.563Z,1000
2023-02-25T13:58:24.575Z,1000
2023-02-25T13:59:40.939Z,1000.1
2023-02-25T14:00:56.961Z,1000.1
2023-02-25T14:02:13.153Z,1000.2
2023-02-25T14:03:29.500Z,1000.1
2023-02-25T14:04:45.516Z,1000.1
2023-02-25T14:06:01.708Z,1000.1
2023-02-25T14:07:17.898Z,1000.1
2023-02-25T14:08:34.080Z,1000.2
2023-02-25T14:09:50.277Z,1000.2
2023-02-25T14:11:06.633Z,1000.2
2023-02-25T14:12:22.823Z,1000.3
2023-02-25T14:13:38.046Z,1000.4
2023-02-25T14:14:54.232Z,1000.3
2023-02-25T14:16:10.232Z,1000.3
2023-02-25T14:17:26.611Z,1000.3
2023-02-25T14:18:42.796Z,1000.4
2023-02-25T14:19:58.796Z,1000.4
2023-02-25T14:21:14.997Z,1000.4
2023-02-25T14:22:30.394Z,1000.4
2023-02-25T14:23:45.424Z,1000.4
2023-02-25T14:25:01.922Z,1000.5
2023-02-25T14:26:17.144Z,1000.5
2023-02-25T14:27:33.321Z,1000.5
2023-02-25T14:28:49.511Z,1000.6
2023-02-25T14:30:05.697Z,1000.6
2023-02-25T14:31:21.710Z,1000.6
2023-02-25T14:32:38.082Z,1000.6
2023-02-25T14:33:54.264Z,1000.6
2023-02-25T14:35:10.274Z,1000.7
2023-02-25T14:36:26.641Z,1000.7
2023-02-25T14:37:42.833Z,1000.7
2023-02-25T14:38:58.844Z,1000.8
2023-02-25T14:40:15.211Z,1000.8
2023-02-25T14:41:31.394Z,1000.8
2023-02-25T14:42:46.606Z,1000.9
2023-02-25T14:44:02.783Z,1000.8
2023-02-25T14:45:18.795Z,1000.9
2023-02-25T14:46:34.982Z,1000.9
2023-02-25T14:47:51.345Z,1001
2023-02-25T14:49:07.537Z,1001
2023-02-25T14:50:23.723Z,1001.1
2023-02-25T14:51:38.946Z,1001
2023-02-25T14:52:54.134Z,1001.1
2023-02-25T14:54:09.167Z,1001
2023-02-25T14:55:24.568Z,1001.1
2023-02-25T14:56:40.750Z,1001.1
2023-02-25T14:57:56.760Z,1001
2023-02-25T14:59:13.114Z,1001.1
2023-02-25T15:00:29.305Z,1001.1
2023-02-25T15:01:45.321Z,1001.1
2023-02-25T15:03:01.693Z,1001.1
2023-02-25T15:04:17.869Z,1001.2
2023-02-25T15:05:33.876Z,1001.2
2023-02-25T15:06:50.249Z,1001.1
2023-02-25T15:08:06.428Z,1001.2
2023-02-25T15:09:22.444Z,1001.2
2023-02-25T15:10:38.616Z,1001.3
2023-02-25T15:11:54.012Z,1001.2
2023-02-25T15:13:10.008Z,1001.3
2023-02-25T15:14:26.382Z,1001.3
2023-02-25T15:15:42.567Z,1001.3
2023-02-25T15:16:58.571Z,1001.3
2023-02-25T15:18:14.948Z,1001.3
2023-02-25T15:19:31.145Z,1001.4
2023-02-25T15:20:46.348Z,1001.3
2023-02-25T15:22:01.550Z,1001.3
2023-02-25T15:23:16.581Z,1001.4
2023-02-25T15:24:31.784Z,1001.4
2023-02-25T15:25:48.172Z,1001.4
2023-02-25T15:27:04.348Z,1001.4
2023-02-25T15:28:20.530Z,1001.4
2023-02-25T15:29:36.728Z,1001.5
2023-02-25T15:30:52.918Z,1001.6
2023-02-25T15:32:09.154Z,1001.5
2023-02-25T15:33:25.293Z,1001.6
2023-02-25T15:34:41.485Z,1001.6
2023-02-25T15:35:57.707Z,1001.6
2023-02-25T15:37:13.857Z,1001.7
2023-02-25T15:38:30.041Z,1001.8
2023-02-25T15:39:46.271Z,1001.8
2023-02-25T15:41:01.424Z,1001.7
2023-02-25T15:42:17.625Z,1001.7
2023-02-25T15:43:33.807Z,1001.8
2023-02-25T15:44:49.996Z,1001.8
2023-02-25T15:46:06.179Z,1001.8
2023-02-25T15:47:22.423Z,1001.8
2023-02-25T15:48:38.599Z,1001.8
2023-02-25T15:49:53.766Z,1001.9
2023-02-25T15:51:08.972Z,1001.9
2023-02-25T15:52:24.193Z,1002
2023-02-25T15:53:39.393Z,1001.9
2023-02-25T15:54:55.633Z,1002
2023-02-25T15:56:11.819Z,1002
2023-02-25T15:57:27.959Z,1002
2023-02-25T15:58:44.132Z,1002
2023-02-25T16:00:00.373Z,1002
2023-02-25T16:01:16.553Z,1002.1
2023-02-25T16:02:32.754Z,1002.1
2023-02-25T16:03:48.895Z,1002.1
2023-02-25T16:05:05.071Z,1002
2023-02-25T16:06:21.261Z,1002.1
2023-02-25T16:07:37.503Z,1002.1
2023-02-25T16:08:53.649Z,1002.2
2023-02-25T16:10:08.886Z,1002.2
2023-02-25T16:11:25.021Z,1002.2
2023-02-25T16:12:41.209Z,1002.2
2023-02-25T16:13:57.457Z,1002.3
2023-02-25T16:15:13.631Z,1002.3
2023-02-25T16:16:29.776Z,1002.3
2023-02-25T16:17:46.021Z,1002.4
2023-02-25T16:19:01.187Z,1002.4
2023-02-25T16:20:16.384Z,1002.4
2023-02-25T16:21:32.615Z,1002.5